createdAt,value
2018-07-23T00:01:21.407Z,101598.08
2018-07-23T00:03:49.246Z,101592.77
2018-07-23T00:06:17.662Z,101592.87
2018-07-23T00:08:45.270Z,101588.95
2018-07-23T00:11:13.514Z,101591.17
2018-07-23T00:13:41.164Z,101586.86
2018-07-23T00:16:08.807Z,101583.55
2018-07-23T00:18:36.785Z,101595.31
2018-07-23T00:21:04.606Z,101589.94
2018-07-23T00:23:32.582Z,101594.83
2018-07-23T00:26:00.714Z,101594.44
2018-07-23T00:28:28.600Z,101595.25
2018-07-23T00:30:56.617Z,101595.25
2018-07-23T00:33:24.263Z,101593.98
2018-07-23T00:35:51.897Z,101591.00
2018-07-23T00:38:19.642Z,101599.41
2018-07-23T00:40:47.626Z,101591.90
2018-07-23T00:43:15.228Z,101595.03
2018-07-23T00:45:43.243Z,101588.91
2018-07-23T00:48:10.846Z,101587.13
2018-07-23T00:50:38.848Z,101589.39
2018-07-23T00:53:06.733Z,101588.12
2018-07-23T00:55:34.845Z,101551.39
2018-07-23T00:58:02.769Z,101585.53
2018-07-23T01:00:30.505Z,101591.23
2018-07-23T01:03:02.661Z,101600.13
2018-07-23T01:05:30.581Z,101595.81
2018-07-23T01:07:58.216Z,101597.14
2018-07-23T01:10:26.262Z,101597.59
2018-07-23T01:12:53.946Z,101598.92
2018-07-23T01:15:21.605Z,101594.21
2018-07-23T01:17:49.292Z,101596.47
2018-07-23T01:20:17.162Z,101600.06
2018-07-23T01:22:44.864Z,101594.33
2018-07-23T01:25:13.141Z,101595.20
2018-07-23T01:27:41.069Z,101600.98
2018-07-23T01:30:08.738Z,101595.68
2018-07-23T01:32:36.340Z,101597.16
2018-07-23T01:35:04.008Z,101591.52
2018-07-23T01:37:31.960Z,101594.62
2018-07-23T01:39:59.956Z,101598.20
2018-07-23T01:42:28.096Z,101601.70
2018-07-23T01:44:56.234Z,101601.30
2018-07-23T01:47:23.854Z,101600.91
2018-07-23T01:49:51.506Z,101599.59
2018-07-23T01:52:19.384Z,101600.52
2018-07-23T01:54:47.619Z,101602.36
2018-07-23T01:57:15.251Z,101601.97
2018-07-23T01:59:43.181Z,101597.98
2018-07-23T02:02:10.875Z,101599.85
2018-07-23T02:04:38.625Z,101589.41
2018-07-23T02:07:06.877Z,101599.42
2018-07-23T02:09:34.589Z,101596.37
2018-07-23T02:12:02.763Z,101603.94
2018-07-23T02:14:30.388Z,101611.52
2018-07-23T02:16:58.794Z,101609.76
2018-07-23T02:19:26.459Z,101616.27
2018-07-23T02:21:54.100Z,101612.69
2018-07-23T02:24:22.188Z,101610.52
2018-07-23T02:26:50.268Z,101617.99
2018-07-23T02:29:17.895Z,101618.42
2018-07-23T02:31:45.798Z,101623.78
2018-07-23T02:34:13.461Z,101625.56
2018-07-23T02:36:41.101Z,101623.84
2018-07-23T02:39:10.762Z,101624.72
2018-07-23T02:41:38.426Z,101621.24
2018-07-23T02:44:06.107Z,101623.89
2018-07-23T02:46:33.767Z,101626.20
2018-07-23T02:49:01.406Z,101626.20
2018-07-23T02:51:29.582Z,101629.41
2018-07-23T02:53:57.590Z,101633.37
2018-07-23T02:56:25.290Z,101630.30
2018-07-23T02:58:52.909Z,101636.48
2018-07-23T03:01:20.577Z,101630.45
2018-07-23T03:03:48.196Z,101633.48
2018-07-23T03:06:16.218Z,101636.94
2018-07-23T03:08:43.864Z,101633.48
2018-07-23T03:11:11.529Z,101631.77
2018-07-23T03:13:39.148Z,101630.84
2018-07-23T03:16:07.004Z,101630.45
2018-07-23T03:18:35.353Z,101626.91
2018-07-23T03:21:02.995Z,101630.02
2018-07-23T03:23:30.660Z,101634.93
2018-07-23T03:25:58.350Z,101636.25
2018-07-23T03:28:26.384Z,101642.04
2018-07-23T03:30:54.304Z,101644.20
2018-07-23T03:33:21.989Z,101646.02
2018-07-23T03:35:50.381Z,101583.20
2018-07-23T03:38:18.012Z,101649.91
2018-07-23T03:40:46.480Z,101649.02
2018-07-23T03:43:14.123Z,101648.58
2018-07-23T03:45:41.800Z,101653.44
2018-07-23T03:48:09.425Z,101640.57
2018-07-23T03:50:37.028Z,101651.18
2018-07-23T03:53:04.705Z,101646.75
2018-07-23T03:55:32.812Z,101640.57
2018-07-23T03:58:00.483Z,101645.38
2018-07-23T04:00:28.094Z,101647.48
2018-07-23T04:02:56.164Z,101647.09
2018-07-23T04:05:24.009Z,101657.64
2018-07-23T04:07:52.157Z,101653.67
2018-07-23T04:10:19.827Z,101657.11
2018-07-23T04:12:47.474Z,101654.45
2018-07-23T04:15:15.381Z,101660.24
2018-07-23T04:17:48.180Z,101661.97
2018-07-23T04:20:15.860Z,101656.60
2018-07-23T04:22:43.958Z,101656.55
2018-07-23T04:25:11.928Z,101658.72
2018-07-23T04:27:39.634Z,101662.70
2018-07-23T04:30:07.309Z,101660.98
2018-07-23T04:32:35.472Z,101662.70
2018-07-23T04:35:03.090Z,101659.11
2018-07-23T04:37:30.740Z,101653.75
2018-07-23T04:39:58.434Z,101661.31
2018-07-23T04:42:26.093Z,101659.59
2018-07-23T04:44:54.044Z,101662.25
2018-07-23T04:47:22.036Z,101665.75
2018-07-23T04:49:49.673Z,101627.28
2018-07-23T04:52:17.386Z,101668.48
2018-07-23T04:54:45.313Z,101669.22
2018-07-23T04:57:13.594Z,101665.23
2018-07-23T04:59:41.478Z,101668.68
2018-07-23T05:02:09.781Z,101667.30
2018-07-23T05:04:37.453Z,101672.60
2018-07-23T05:07:05.349Z,101665.04
2018-07-23T05:09:33.017Z,101666.80
2018-07-23T05:12:00.657Z,101671.17
2018-07-23T05:14:29.076Z,101668.96
2018-07-23T05:16:57.065Z,101675.53
2018-07-23T05:19:24.700Z,101675.09
2018-07-23T05:21:52.359Z,101674.10
2018-07-23T05:24:20.347Z,101674.95
2018-07-23T05:26:48.342Z,101677.59
2018-07-23T05:29:16.464Z,101677.59
2018-07-23T05:31:44.513Z,101686.83
2018-07-23T05:34:12.610Z,101682.40
2018-07-23T05:36:40.567Z,101684.17
2018-07-23T05:39:10.899Z,101682.38
2018-07-23T05:41:39.168Z,101677.91
2018-07-23T05:44:06.824Z,101682.32
2018-07-23T05:46:34.480Z,101679.58
2018-07-23T05:49:02.143Z,101683.44
2018-07-23T05:51:30.260Z,101685.65
2018-07-23T05:53:57.921Z,101687.37
2018-07-23T05:56:25.593Z,101695.27
2018-07-23T05:58:53.288Z,101689.91
2018-07-23T06:01:21.416Z,101692.08
2018-07-23T06:03:49.079Z,101691.23
2018-07-23T06:06:17.071Z,101699.98
2018-07-23T06:08:44.692Z,101698.21
2018-07-23T06:11:12.321Z,101695.50
2018-07-23T06:13:40.309Z,101697.61
2018-07-23T06:16:08.116Z,101697.11
2018-07-23T06:18:35.787Z,101697.89
2018-07-23T06:21:03.713Z,101700.48
2018-07-23T06:23:31.426Z,101703.53
2018-07-23T06:25:59.332Z,101699.22
2018-07-23T06:28:27.324Z,101704.64
2018-07-23T06:30:55.205Z,101702.13
2018-07-23T06:33:22.889Z,101707.16
2018-07-23T06:35:50.760Z,101704.95
2018-07-23T06:38:18.390Z,101713.37
2018-07-23T06:40:46.469Z,101712.86
2018-07-23T06:43:14.107Z,101718.91
2018-07-23T06:45:41.828Z,101714.80
2018-07-23T06:48:09.870Z,101717.41
2018-07-23T06:50:38.018Z,101710.63
2018-07-23T06:53:06.151Z,101710.51
2018-07-23T06:55:34.101Z,101720.14
2018-07-23T06:58:02.083Z,101723.89
2018-07-23T07:00:29.767Z,101720.97
2018-07-23T07:02:57.409Z,101718.53
2018-07-23T07:05:25.337Z,101715.88
2018-07-23T07:07:53.038Z,101716.39
2018-07-23T07:10:21.024Z,101720.31
2018-07-23T07:12:48.678Z,101717.99
2018-07-23T07:15:16.657Z,101716.55
2018-07-23T07:17:44.321Z,101721.14
2018-07-23T07:20:12.060Z,101716.05
2018-07-23T07:22:39.663Z,101708.77
2018-07-23T07:25:07.312Z,101718.46
2018-07-23T07:27:35.240Z,101719.52
2018-07-23T07:30:03.017Z,101718.27
2018-07-23T07:32:30.690Z,101717.49
2018-07-23T07:34:58.354Z,101716.16
2018-07-23T07:37:25.989Z,101715.77
2018-07-23T07:39:54.236Z,101719.09
2018-07-23T07:42:21.939Z,101723.72
2018-07-23T07:44:49.580Z,101708.98
2018-07-23T07:47:17.873Z,101713.15
2018-07-23T07:49:45.551Z,101711.64
2018-07-23T07:52:13.481Z,101710.98
2018-07-23T07:54:41.404Z,101710.38
2018-07-23T07:57:09.231Z,101707.45
2018-07-23T07:59:37.118Z,101712.37
2018-07-23T08:02:04.801Z,101715.53
2018-07-23T08:04:32.521Z,101717.68
2018-07-23T08:07:00.436Z,101713.88
2018-07-23T08:09:28.157Z,101715.36
2018-07-23T08:11:56.298Z,101705.39
2018-07-23T08:14:23.963Z,101709.64
2018-07-23T08:16:51.616Z,101709.58
2018-07-23T08:19:19.550Z,101718.00
2018-07-23T08:21:47.521Z,101715.08
2018-07-23T08:24:15.461Z,101713.42
2018-07-23T08:26:43.452Z,101714.75
2018-07-23T08:29:11.575Z,101714.75
2018-07-23T08:31:39.305Z,101718.49
2018-07-23T08:34:06.897Z,101719.15
2018-07-23T08:36:35.278Z,101716.22
2018-07-23T08:39:03.147Z,101709.84
2018-07-23T08:41:31.080Z,101716.30
2018-07-23T08:43:58.766Z,101718.08
2018-07-23T08:46:26.395Z,101723.94
2018-07-23T08:48:54.042Z,101723.67
2018-07-23T08:51:21.826Z,101730.56
2018-07-23T08:53:49.474Z,101733.64
2018-07-23T08:56:17.998Z,101735.02
2018-07-23T08:58:46.065Z,101728.59
2018-07-23T09:01:14.223Z,101731.02
2018-07-23T09:03:42.276Z,101728.79
2018-07-23T09:06:10.169Z,101728.36
2018-07-23T09:08:38.162Z,101736.83
2018-07-23T09:11:05.977Z,101738.03
2018-07-23T09:13:34.058Z,101731.57
2018-07-23T09:16:02.099Z,101737.09
2018-07-23T09:18:30.119Z,101732.88
2018-07-23T09:20:57.767Z,101724.00
2018-07-23T09:23:25.402Z,101733.21
2018-07-23T09:25:53.121Z,101734.13
2018-07-23T09:28:21.347Z,101738.14
2018-07-23T09:30:51.437Z,101738.42
2018-07-23T09:33:21.042Z,101741.08
2018-07-23T09:35:49.021Z,101737.20
2018-07-23T09:38:16.674Z,101741.09
2018-07-23T09:40:44.623Z,101739.02
2018-07-23T09:43:12.806Z,101742.19
2018-07-23T09:45:40.478Z,101734.70
2018-07-23T09:48:08.684Z,101733.17
2018-07-23T09:50:36.396Z,101733.38
2018-07-23T09:53:04.257Z,101732.64
2018-07-23T09:55:32.050Z,101737.67
2018-07-23T09:57:59.679Z,101728.36
2018-07-23T10:00:33.265Z,101727.52
2018-07-23T10:03:00.922Z,101727.71
2018-07-23T10:05:28.584Z,101727.45
2018-07-23T10:07:56.641Z,101722.19
2018-07-23T10:10:24.660Z,101729.78
2018-07-23T10:12:52.613Z,101727.73
2018-07-23T10:15:20.649Z,101722.88
2018-07-23T10:17:48.610Z,101725.08
2018-07-23T10:20:16.826Z,101724.69
2018-07-23T10:22:44.502Z,101721.80
2018-07-23T10:25:12.421Z,101726.05
2018-07-23T10:27:40.385Z,101725.44
2018-07-23T10:30:08.016Z,101723.66
2018-07-23T10:32:35.710Z,101728.98
2018-07-23T10:35:03.377Z,101725.05
2018-07-23T10:37:31.280Z,101729.91
2018-07-23T10:39:58.994Z,101730.70
2018-07-23T10:42:26.625Z,101727.52
2018-07-23T10:44:54.676Z,101724.37
2018-07-23T10:47:22.700Z,101724.80
2018-07-23T10:49:50.300Z,101723.92
2018-07-23T10:52:18.584Z,101731.19
2018-07-23T10:54:46.467Z,101718.89
2018-07-23T10:57:14.492Z,101718.73
2018-07-23T10:59:42.525Z,101723.79
2018-07-23T11:02:10.707Z,101715.74
2018-07-23T11:04:38.349Z,101726.52
2018-07-23T11:07:06.043Z,101716.72
2018-07-23T11:09:33.656Z,101725.83
2018-07-23T11:12:01.298Z,101722.09
2018-07-23T11:14:29.225Z,101722.36
2018-07-23T11:16:57.205Z,101723.07
2018-07-23T11:19:25.151Z,101725.98
2018-07-23T11:21:52.998Z,101717.55
2018-07-23T11:24:20.645Z,101719.20
2018-07-23T11:26:48.571Z,101721.31
2018-07-23T11:29:17.048Z,101725.95
2018-07-23T11:31:45.163Z,101729.80
2018-07-23T11:34:13.291Z,101721.50
2018-07-23T11:36:41.592Z,101721.80
2018-07-23T11:39:11.225Z,101721.73
2018-07-23T11:41:39.838Z,101720.17
2018-07-23T11:44:07.459Z,101726.62
2018-07-23T11:46:35.660Z,101731.77
2018-07-23T11:49:04.069Z,101725.02
2018-07-23T11:51:31.677Z,101721.73
2018-07-23T11:53:59.514Z,101719.01
2018-07-23T11:56:27.284Z,101717.16
2018-07-23T11:58:55.226Z,101718.80
2018-07-23T12:01:23.519Z,101720.98
2018-07-23T12:03:51.440Z,101725.39
2018-07-23T12:06:19.353Z,101722.31
2018-07-23T12:08:47.007Z,101722.31
2018-07-23T12:11:14.685Z,101727.56
2018-07-23T12:13:42.315Z,101730.97
2018-07-23T12:16:10.276Z,101731.61
2018-07-23T12:18:37.982Z,101729.39
2018-07-23T12:21:05.594Z,101729.53
2018-07-23T12:23:33.226Z,101725.78
2018-07-23T12:26:00.900Z,101728.83
2018-07-23T12:28:28.581Z,101729.08
2018-07-23T12:30:56.236Z,101722.81
2018-07-23T12:33:24.254Z,101724.87
2018-07-23T12:35:52.317Z,101726.11
2018-07-23T12:38:20.204Z,101728.25
2018-07-23T12:40:47.969Z,101727.23
2018-07-23T12:43:16.221Z,101723.17
2018-07-23T12:45:43.911Z,101717.28
2018-07-23T12:48:11.851Z,101723.42
2018-07-23T12:50:39.481Z,101720.20
2018-07-23T12:53:07.523Z,101715.67
2018-07-23T12:55:35.228Z,101717.33
2018-07-23T12:58:02.941Z,101718.48
2018-07-23T13:00:30.576Z,101721.01
2018-07-23T13:02:58.245Z,101720.55
2018-07-23T13:05:30.938Z,101717.72
2018-07-23T13:07:59.569Z,101726.02
2018-07-23T13:10:27.467Z,101723.21
2018-07-23T13:12:55.124Z,101730.68
2018-07-23T13:15:23.265Z,101727.06
2018-07-23T13:17:51.370Z,101731.41
2018-07-23T13:20:19.020Z,101725.14
2018-07-23T13:22:47.449Z,101728.11
2018-07-23T13:25:15.381Z,101723.09
2018-07-23T13:27:43.539Z,101719.03
2018-07-23T13:30:11.257Z,101725.55
2018-07-23T13:32:39.301Z,101718.43
2018-07-23T13:35:07.031Z,101713.41
2018-07-23T13:37:34.786Z,101711.13
2018-07-23T13:40:02.477Z,101710.19
2018-07-23T13:42:30.348Z,101717.55
2018-07-23T13:44:58.001Z,101717.09
2018-07-23T13:47:25.667Z,101710.73
2018-07-23T13:49:53.334Z,101715.54
2018-07-23T13:52:21.220Z,101715.43
2018-07-23T13:54:48.924Z,101714.91
2018-07-23T13:57:16.931Z,101709.95
2018-07-23T13:59:44.908Z,101709.81
2018-07-23T14:02:13.244Z,101711.91
2018-07-23T14:04:40.980Z,101703.84
2018-07-23T14:07:08.910Z,101702.89
2018-07-23T14:09:36.558Z,101706.36
2018-07-23T14:12:04.503Z,101701.80
2018-07-23T14:14:32.386Z,101700.45
2018-07-23T14:17:00.119Z,101703.44
2018-07-23T14:19:27.801Z,101697.64
2018-07-23T14:21:55.700Z,101695.52
2018-07-23T14:24:23.362Z,101696.06
2018-07-23T14:26:51.989Z,101694.66
2018-07-23T14:29:20.213Z,101695.19
2018-07-23T14:31:48.427Z,101693.47
2018-07-23T14:34:16.106Z,101696.33
2018-07-23T14:36:43.776Z,101692.45
2018-07-23T14:39:13.285Z,101690.12
2018-07-23T14:41:41.283Z,101689.05
2018-07-23T14:44:09.272Z,101683.08
2018-07-23T14:46:37.277Z,101689.22
2018-07-23T14:49:05.154Z,101692.33
2018-07-23T14:51:32.828Z,101687.20
2018-07-23T14:54:00.874Z,101693.68
2018-07-23T14:56:28.509Z,101684.63
2018-07-23T14:58:56.234Z,101687.44
2018-07-23T15:01:23.876Z,101690.61
2018-07-23T15:03:51.526Z,101689.52
2018-07-23T15:06:19.485Z,101683.53
2018-07-23T15:08:47.656Z,101687.77
2018-07-23T15:11:15.297Z,101682.15
2018-07-23T15:13:43.073Z,101684.50
2018-07-23T15:16:11.013Z,101686.85
2018-07-23T15:18:38.666Z,101684.50
2018-07-23T15:21:06.415Z,101685.18
2018-07-23T15:23:34.074Z,101684.19
2018-07-23T15:26:01.845Z,101689.70
2018-07-23T15:28:29.840Z,101689.78
2018-07-23T15:30:57.553Z,101685.91
2018-07-23T15:33:25.559Z,101692.51
2018-07-23T15:35:53.595Z,101685.40
2018-07-23T15:38:21.909Z,101683.19
2018-07-23T15:40:49.597Z,101691.97
2018-07-23T15:43:17.404Z,101683.23
2018-07-23T15:45:45.471Z,101676.63
2018-07-23T15:48:13.000Z,101670.66
2018-07-23T15:50:41.223Z,101674.13
2018-07-23T15:53:09.210Z,101668.33
2018-07-23T15:55:36.904Z,101673.96
2018-07-23T15:58:05.032Z,101677.33
2018-07-23T16:00:32.661Z,101678.73
2018-07-23T16:03:00.351Z,101678.30
2018-07-23T16:05:28.130Z,101675.33
2018-07-23T16:07:56.107Z,101678.22
2018-07-23T16:10:24.033Z,101672.05
2018-07-23T16:12:51.677Z,101669.97
2018-07-23T16:15:19.404Z,101671.69
2018-07-23T16:17:47.518Z,101670.19
2018-07-23T16:20:15.166Z,101669.88
2018-07-23T16:22:42.892Z,101668.16
2018-07-23T16:25:11.249Z,101661.52
2018-07-23T16:27:38.893Z,101670.27
2018-07-23T16:30:07.594Z,101664.26
2018-07-23T16:32:35.263Z,101661.09
2018-07-23T16:35:03.144Z,101659.75
2018-07-23T16:37:30.822Z,101662.20
2018-07-23T16:39:58.776Z,101658.65
2018-07-23T16:42:26.428Z,101657.67
2018-07-23T16:44:54.397Z,101663.72
2018-07-23T16:47:22.071Z,101663.26
2018-07-23T16:49:49.734Z,101670.53
2018-07-23T16:52:17.580Z,101660.78
2018-07-23T16:54:45.385Z,101663.67
2018-07-23T16:57:13.052Z,101665.38
2018-07-23T16:59:41.279Z,101665.03
2018-07-23T17:02:08.962Z,101670.59
2018-07-23T17:04:37.133Z,101667.77
2018-07-23T17:07:04.850Z,101674.55
2018-07-23T17:09:32.524Z,101670.35
2018-07-23T17:12:00.147Z,101671.30
2018-07-23T17:14:28.071Z,101667.70
2018-07-23T17:16:55.830Z,101664.27
2018-07-23T17:19:23.492Z,101669.59
2018-07-23T17:21:51.170Z,101673.53
2018-07-23T17:24:18.846Z,101671.76
2018-07-23T17:26:46.534Z,101672.70
2018-07-23T17:29:14.178Z,101671.53
2018-07-23T17:31:42.381Z,101671.91
2018-07-23T17:34:10.015Z,101678.69
2018-07-23T17:36:37.663Z,101680.97
2018-07-23T17:39:08.703Z,101677.91
2018-07-23T17:41:36.370Z,101678.41
2018-07-23T17:44:04.041Z,101674.86
2018-07-23T17:46:31.753Z,101678.19
2018-07-23T17:48:59.764Z,101673.51
2018-07-23T17:51:27.729Z,101673.78
2018-07-23T17:53:55.424Z,101671.85
2018-07-23T17:56:23.327Z,101668.70
2018-07-23T17:58:51.043Z,101577.97
2018-07-23T18:01:19.245Z,101669.17
2018-07-23T18:03:47.173Z,101667.20
2018-07-23T18:06:15.165Z,101664.06
2018-07-23T18:08:42.861Z,101666.39
2018-07-23T18:11:10.553Z,101671.81
2018-07-23T18:13:38.454Z,101671.63
2018-07-23T18:16:06.350Z,101672.09
2018-07-23T18:18:35.449Z,101675.73
2018-07-23T18:21:03.316Z,101671.84
2018-07-23T18:23:30.970Z,101675.66
2018-07-23T18:25:58.664Z,101666.11
2018-07-23T18:28:26.576Z,101680.99
2018-07-23T18:30:54.830Z,101679.49
2018-07-23T18:33:22.476Z,101675.38
2018-07-23T18:35:50.181Z,101682.45
2018-07-23T18:38:18.218Z,101680.36
2018-07-23T18:40:46.183Z,101676.03
2018-07-23T18:43:14.399Z,101675.88
2018-07-23T18:45:42.518Z,101673.47
2018-07-23T18:49:26.865Z,101676.10
2018-07-23T18:51:55.034Z,101676.21
2018-07-23T18:54:24.477Z,101678.31
2018-07-23T18:56:53.866Z,101676.88
2018-07-23T18:59:21.617Z,101677.26
2018-07-23T19:01:50.792Z,101677.23
2018-07-23T19:04:18.452Z,101673.30
2018-07-23T19:06:46.585Z,101680.80
2018-07-23T19:09:16.758Z,101680.06
2018-07-23T19:11:45.492Z,101684.61
2018-07-23T19:14:14.488Z,101688.45
2018-07-23T19:16:42.375Z,101695.71
2018-07-23T19:19:10.138Z,101695.77
2018-07-23T19:21:38.151Z,101692.67
2018-07-23T19:24:05.847Z,101698.75
2018-07-23T19:26:33.498Z,101691.64
2018-07-23T19:29:01.153Z,101695.51
2018-07-23T19:31:29.301Z,101693.66
2018-07-23T19:33:58.519Z,101701.06
2018-07-23T19:36:26.588Z,101701.80
2018-07-23T19:38:55.474Z,101702.56
2018-07-23T19:41:23.158Z,101702.95
2018-07-23T19:43:51.340Z,101705.59
2018-07-23T19:46:19.083Z,101702.77
2018-07-23T19:48:47.148Z,101704.03
2018-07-23T19:51:14.836Z,101705.70
2018-07-23T19:53:42.494Z,101702.66
2018-07-23T19:56:10.794Z,101710.84
2018-07-23T19:58:39.189Z,101706.20
2018-07-23T20:01:06.902Z,101704.70
2018-07-23T20:03:34.935Z,101703.14
2018-07-23T20:06:03.285Z,101706.52
2018-07-23T20:08:31.315Z,101706.81
2018-07-23T20:10:58.963Z,101704.79
2018-07-23T20:13:26.860Z,101705.02
2018-07-23T20:15:55.295Z,101703.86
2018-07-23T20:18:23.328Z,101707.55
2018-07-23T20:20:51.381Z,101707.30
2018-07-23T20:23:19.025Z,101702.19
2018-07-23T20:25:46.717Z,101707.28
2018-07-23T20:28:14.424Z,101699.54
2018-07-23T20:30:42.827Z,101697.97
2018-07-23T20:33:10.798Z,101699.90
2018-07-23T20:35:38.424Z,101701.83
2018-07-23T20:38:06.215Z,101704.64
2018-07-23T20:40:34.007Z,101702.53
2018-07-23T20:43:01.776Z,101704.89
2018-07-23T20:45:29.742Z,101700.58
2018-07-23T20:47:57.877Z,101699.77
2018-07-23T20:50:25.578Z,101710.98
2018-07-23T20:52:53.811Z,101713.40
2018-07-23T20:55:21.535Z,101709.16
2018-07-23T20:57:49.499Z,101708.84
2018-07-23T21:00:17.282Z,101713.85
2018-07-23T21:02:44.893Z,101715.71
2018-07-23T21:05:12.797Z,101717.66
2018-07-23T21:07:40.726Z,101716.97
2018-07-23T21:10:08.384Z,101715.38
2018-07-23T21:12:36.645Z,101721.30
2018-07-23T21:15:05.326Z,101717.41
2018-07-23T21:17:32.972Z,101712.22
2018-07-23T21:20:00.674Z,101713.30
2018-07-23T21:22:28.332Z,101712.03
2018-07-23T21:24:56.374Z,101705.94
2018-07-23T21:27:24.054Z,101706.98
2018-07-23T21:29:51.961Z,101710.17
2018-07-23T21:32:19.971Z,101712.89
2018-07-23T21:34:48.255Z,101709.00
2018-07-23T21:37:16.627Z,101709.98
2018-07-23T21:39:44.629Z,101708.81
2018-07-23T21:42:12.559Z,101708.95
2018-07-23T21:44:40.307Z,101713.00
2018-07-23T21:47:08.255Z,101712.23
2018-07-23T21:49:35.910Z,101717.62
2018-07-23T21:52:03.674Z,101714.25
2018-07-23T21:54:31.880Z,101714.38
2018-07-23T21:56:59.554Z,101718.43
2018-07-23T21:59:27.217Z,101718.05
2018-07-23T22:01:55.086Z,101712.72
2018-07-23T22:04:22.838Z,101715.38
2018-07-23T22:06:50.546Z,101715.45
2018-07-23T22:09:18.853Z,101714.19
2018-07-23T22:11:46.492Z,101715.13
2018-07-23T22:14:14.191Z,101718.80
2018-07-23T22:16:42.160Z,101720.64
2018-07-23T22:19:09.882Z,101720.25
2018-07-23T22:21:38.059Z,101713.66
2018-07-23T22:24:06.177Z,101714.22
2018-07-23T22:26:33.874Z,101710.30
2018-07-23T22:29:01.896Z,101713.02
2018-07-23T22:31:29.872Z,101718.41
2018-07-23T22:33:57.827Z,101710.97
2018-07-23T22:36:25.618Z,101711.91
2018-07-23T22:38:53.326Z,101711.56
2018-07-23T22:41:21.089Z,101716.03
2018-07-23T22:43:49.075Z,101712.50
2018-07-23T22:46:17.252Z,101707.73
2018-07-23T22:48:45.057Z,101716.64
2018-07-23T22:51:12.742Z,101715.37
2018-07-23T22:53:40.765Z,101718.49
2018-07-23T22:56:08.783Z,101713.73
2018-07-23T22:58:36.433Z,101713.27
2018-07-23T23:01:04.202Z,101712.88
2018-07-23T23:03:32.201Z,101708.50
2018-07-23T23:06:00.163Z,101715.21
2018-07-23T23:08:28.100Z,101715.27
2018-07-23T23:10:55.781Z,101718.00
2018-07-23T23:13:24.141Z,101719.42
2018-07-23T23:15:52.041Z,101723.41
2018-07-23T23:18:19.986Z,101720.33
2018-07-23T23:20:47.958Z,101719.00
2018-07-23T23:23:15.969Z,101720.88
2018-07-23T23:25:43.606Z,101720.48
2018-07-23T23:28:11.296Z,101722.39
2018-07-23T23:30:38.947Z,101716.62
2018-07-23T23:33:06.902Z,101718.47
2018-07-23T23:35:34.797Z,101715.03
2018-07-23T23:38:02.863Z,101711.55
2018-07-23T23:40:30.565Z,101713.76
2018-07-23T23:42:58.902Z,101712.10
2018-07-23T23:45:27.153Z,101718.75
2018-07-23T23:47:54.902Z,101706.91
2018-07-23T23:50:22.590Z,101703.47
2018-07-23T23:52:50.267Z,101703.08
2018-07-23T23:55:18.620Z,101695.17
2018-07-23T23:57:46.567Z,101693.03
